createdAt,value
2023-01-01T00:02:43.705Z,34.73
2023-01-01T00:05:46.681Z,31.50
2023-01-01T00:09:11.847Z,28.17
2023-01-01T00:12:14.766Z,26.57
2023-01-01T00:15:17.905Z,24.67
2023-01-01T00:18:20.903Z,20.40
2023-01-01T00:21:23.860Z,20.43
2023-01-01T00:24:28.179Z,21.07
2023-01-01T00:27:31.380Z,14.00
2023-01-01T00:30:34.476Z,12.67
2023-01-01T00:33:37.540Z,14.07
2023-01-01T00:36:40.516Z,13.27
2023-01-01T00:39:44.841Z,12.73
2023-01-01T00:42:47.808Z,8.23
2023-01-01T00:45:53.877Z,8.47
2023-01-01T00:48:56.911Z,9.80
2023-01-01T00:51:59.794Z,9.37
2023-01-01T00:55:04.229Z,7.10
2023-01-01T00:58:07.158Z,7.83
2023-01-01T01:01:10.362Z,6.63
2023-01-01T01:04:13.329Z,6.23
2023-01-01T01:07:16.184Z,7.30
2023-01-01T01:10:21.485Z,6.67
2023-01-01T01:13:24.397Z,8.70
2023-01-01T01:16:29.925Z,14.80
2023-01-01T01:19:32.896Z,10.97
2023-01-01T01:22:36.140Z,11.40
2023-01-01T01:25:40.449Z,9.07
2023-01-01T01:28:49.430Z,11.77
2023-01-01T01:31:52.929Z,10.37
2023-01-01T01:34:55.916Z,6.70
2023-01-01T01:37:58.796Z,7.27
2023-01-01T01:41:03.540Z,8.80
2023-01-01T01:44:46.301Z,6.13
2023-01-01T01:47:53.040Z,8.90
2023-01-01T01:50:56.559Z,8.40
2023-01-01T01:54:04.553Z,8.97
2023-01-01T01:57:12.438Z,6.13
2023-01-01T02:00:16.605Z,7.77
2023-01-01T02:03:23.539Z,13.43
2023-01-01T02:06:27.584Z,9.97
2023-01-01T02:09:30.753Z,6.57
2023-01-01T02:12:35.198Z,8.43
2023-01-01T02:15:45.491Z,8.27
2023-01-01T02:18:55.878Z,6.53
2023-01-01T02:22:07.868Z,9.60
2023-01-01T02:25:18.895Z,12.70
2023-01-01T02:28:34.943Z,9.13
2023-01-01T02:31:41.218Z,9.53
2023-01-01T02:34:48.921Z,8.23
2023-01-01T02:37:55.760Z,10.57
2023-01-01T02:41:02.369Z,11.07
2023-01-01T02:47:11.432Z,10.30
2023-01-01T02:50:16.561Z,12.23
2023-01-01T02:53:28.008Z,12.77
2023-01-01T02:56:38.845Z,7.47
2023-01-01T03:00:10.107Z,9.40
2023-01-01T03:03:20.593Z,7.73
2023-01-01T03:06:30.053Z,7.07
2023-01-01T03:09:41.439Z,8.33
2023-01-01T03:12:52.609Z,9.03
2023-01-01T03:16:01.168Z,7.20
2023-01-01T03:19:12.863Z,7.47
2023-01-01T03:22:18.262Z,6.37
2023-01-01T03:25:24.850Z,6.80
2023-01-01T03:28:31.203Z,8.30
2023-01-01T03:31:36.267Z,7.33
2023-01-01T03:34:42.509Z,6.97
2023-01-01T03:37:46.793Z,11.27
2023-01-01T03:40:53.426Z,6.27
2023-01-01T03:44:04.221Z,7.30
2023-01-01T03:47:08.759Z,10.43
2023-01-01T03:50:12.208Z,6.30
2023-01-01T03:53:25.674Z,8.27
2023-01-01T03:56:36.366Z,9.23
2023-01-01T03:59:45.502Z,6.50
2023-01-01T04:02:55.400Z,9.37
2023-01-01T04:05:58.487Z,10.83
2023-01-01T04:09:02.814Z,8.73
2023-01-01T04:12:06.523Z,7.37
2023-01-01T04:15:10.130Z,7.23
2023-01-01T04:18:14.445Z,8.83
2023-01-01T04:21:17.390Z,6.50
2023-01-01T04:24:20.552Z,7.93
2023-01-01T04:27:24.610Z,7.23
2023-01-01T04:30:28.193Z,7.17
2023-01-01T04:33:32.950Z,9.43
2023-01-01T04:36:36.258Z,6.87
2023-01-01T04:39:39.224Z,10.13
2023-01-01T04:42:43.317Z,7.33
2023-01-01T04:45:55.618Z,12.20
2023-01-01T04:49:00.215Z,13.33
2023-01-01T04:52:03.204Z,12.27
2023-01-01T04:55:07.154Z,10.43
2023-01-01T04:58:10.068Z,9.30
2023-01-01T05:01:17.266Z,9.63
2023-01-01T05:04:21.664Z,9.77
2023-01-01T05:07:24.578Z,9.23
2023-01-01T05:10:27.533Z,6.87
2023-01-01T05:13:30.638Z,5.50
2023-01-01T05:16:35.358Z,6.70
2023-01-01T05:19:39.716Z,6.37
2023-01-01T05:22:42.747Z,7.60
2023-01-01T05:25:45.679Z,8.50
2023-01-01T05:28:49.112Z,5.83
2023-01-01T05:31:53.183Z,6.17
2023-01-01T05:34:57.591Z,7.87
2023-01-01T05:38:00.645Z,9.30
2023-01-01T05:41:06.974Z,7.63
2023-01-01T05:44:11.560Z,5.57
2023-01-01T05:47:17.438Z,9.40
2023-01-01T05:50:21.788Z,6.20
2023-01-01T05:53:24.720Z,5.00
2023-01-01T05:56:28.322Z,8.53
2023-01-01T05:59:31.222Z,8.00
2023-01-01T06:02:34.210Z,4.67
2023-01-01T06:05:38.588Z,5.03
2023-01-01T06:08:42.514Z,6.43
2023-01-01T06:11:45.436Z,5.97
2023-01-01T06:14:48.397Z,4.40
2023-01-01T06:17:51.328Z,4.20
2023-01-01T06:20:55.773Z,5.63
2023-01-01T06:24:00.197Z,4.93
2023-01-01T06:27:03.202Z,6.73
2023-01-01T06:30:07.507Z,5.87
2023-01-01T06:33:10.487Z,5.40
2023-01-01T06:36:16.794Z,4.77
2023-01-01T06:39:19.723Z,5.17
2023-01-01T06:42:22.588Z,6.27
2023-01-01T06:45:25.590Z,8.20
2023-01-01T06:48:30.345Z,8.60
2023-01-01T06:51:37.878Z,8.33
2023-01-01T06:54:40.858Z,6.30
2023-01-01T06:57:43.776Z,5.40
2023-01-01T07:00:46.784Z,5.17
2023-01-01T07:03:52.280Z,7.23
2023-01-01T07:06:56.593Z,5.10
2023-01-01T07:09:59.535Z,4.83
2023-01-01T07:13:02.454Z,5.10
2023-01-01T07:16:12.431Z,9.20
2023-01-01T07:19:16.148Z,5.50
2023-01-01T07:22:20.420Z,5.47
2023-01-01T07:25:23.493Z,6.83
2023-01-01T07:28:27.164Z,5.20
2023-01-01T07:31:30.186Z,6.50
2023-01-01T07:34:33.120Z,7.80
2023-01-01T07:37:37.628Z,5.23
2023-01-01T07:40:40.817Z,10.67
2023-01-01T07:43:43.701Z,5.90
2023-01-01T07:46:46.777Z,5.83
2023-01-01T07:49:49.865Z,6.07
2023-01-01T07:52:54.174Z,5.73
2023-01-01T07:55:57.100Z,5.93
2023-01-01T07:58:59.975Z,7.93
2023-01-01T08:02:03.118Z,5.80
2023-01-01T08:05:06.724Z,7.03
2023-01-01T08:08:12.764Z,8.20
2023-01-01T08:11:15.729Z,6.30
2023-01-01T08:14:18.610Z,5.63
2023-01-01T08:17:21.485Z,6.20
2023-01-01T08:20:24.415Z,5.73
2023-01-01T08:23:28.757Z,6.20
2023-01-01T08:26:34.276Z,5.23
2023-01-01T08:29:37.275Z,5.87
2023-01-01T08:32:40.314Z,6.57
2023-01-01T08:35:47.704Z,6.27
2023-01-01T08:38:54.700Z,6.60
2023-01-01T08:41:57.665Z,9.90
2023-01-01T08:45:00.584Z,5.70
2023-01-01T08:48:03.689Z,5.93
2023-01-01T08:51:07.076Z,5.90
2023-01-01T08:54:11.444Z,6.30
2023-01-01T08:57:14.363Z,6.83
2023-01-01T09:00:18.282Z,6.20
2023-01-01T09:03:21.459Z,6.47
2023-01-01T09:06:24.471Z,5.33
2023-01-01T09:09:31.912Z,5.87
2023-01-01T09:12:35.002Z,7.40
2023-01-01T09:15:38.215Z,9.20
2023-01-01T09:18:41.081Z,5.07
2023-01-01T09:21:44.077Z,5.57
2023-01-01T09:24:48.349Z,5.47
2023-01-01T09:27:57.411Z,5.37
2023-01-01T09:31:01.620Z,5.40
2023-01-01T09:34:04.612Z,6.17
2023-01-01T09:37:07.649Z,5.37
2023-01-01T09:40:26.804Z,5.67
2023-01-01T09:43:37.545Z,4.70
2023-01-01T09:46:40.642Z,12.50
2023-01-01T09:49:45.769Z,5.27
2023-01-01T09:52:55.095Z,6.53
2023-01-01T09:56:02.174Z,6.90
2023-01-01T09:59:05.343Z,8.03
2023-01-01T10:02:20.765Z,4.90
2023-01-01T10:05:34.721Z,5.50
2023-01-01T10:08:52.851Z,7.70
2023-01-01T10:12:02.110Z,5.13
2023-01-01T10:15:12.921Z,5.00
2023-01-01T10:18:20.775Z,4.63
2023-01-01T10:21:26.852Z,6.47
2023-01-01T10:24:43.160Z,4.53
2023-01-01T10:27:57.103Z,5.87
2023-01-01T10:31:17.281Z,4.97
2023-01-01T10:34:25.984Z,4.90
2023-01-01T10:37:36.689Z,4.73
2023-01-01T10:40:41.137Z,4.80
2023-01-01T10:43:46.361Z,4.50
2023-01-01T10:46:54.482Z,5.00
2023-01-01T10:49:59.842Z,5.17
2023-01-01T10:53:02.794Z,5.63
2023-01-01T10:56:09.197Z,4.13
2023-01-01T10:59:38.789Z,4.50
2023-01-01T11:02:41.872Z,4.83
2023-01-01T11:06:05.931Z,8.00
2023-01-01T11:09:22.745Z,4.97
2023-01-01T11:13:03.109Z,4.50
2023-01-01T11:15:54.342Z,5.20
2023-01-01T11:19:04.033Z,3.80
2023-01-01T11:22:08.014Z,3.93
2023-01-01T11:25:23.144Z,8.13
2023-01-01T11:28:26.285Z,4.80
2023-01-01T11:31:35.237Z,6.93
2023-01-01T11:34:41.347Z,4.30
2023-01-01T11:37:46.587Z,4.40
2023-01-01T11:40:52.351Z,4.47
2023-01-01T11:43:55.342Z,4.23
2023-01-01T11:47:00.278Z,9.03
2023-01-01T11:50:08.989Z,4.67
2023-01-01T11:53:30.700Z,4.60
2023-01-01T11:56:33.643Z,4.80
2023-01-01T11:59:44.774Z,4.57
2023-01-01T12:02:57.444Z,5.07
2023-01-01T12:06:07.007Z,5.23
2023-01-01T12:09:18.849Z,5.07
2023-01-01T12:12:26.680Z,3.47
2023-01-01T12:15:36.804Z,3.80
2023-01-01T12:18:47.895Z,4.00
2023-01-01T12:21:55.518Z,4.57
2023-01-01T12:24:59.106Z,3.50
2023-01-01T12:28:10.663Z,4.67
2023-01-01T12:31:20.856Z,5.40
2023-01-01T12:34:31.955Z,4.30
2023-01-01T12:37:48.433Z,4.50
2023-01-01T12:40:57.743Z,6.87
2023-01-01T12:44:10.235Z,5.90
2023-01-01T12:47:25.602Z,4.47
2023-01-01T12:50:41.990Z,3.93
2023-01-01T12:53:54.120Z,3.80
2023-01-01T12:57:02.760Z,7.13
2023-01-01T13:00:14.879Z,4.17
2023-01-01T13:03:22.359Z,8.30
2023-01-01T13:06:32.296Z,5.30
2023-01-01T13:09:37.334Z,8.70
2023-01-01T13:12:40.691Z,5.77
2023-01-01T13:15:49.992Z,5.90
2023-01-01T13:18:56.353Z,4.70
2023-01-01T13:22:38.902Z,7.70
2023-01-01T13:25:43.226Z,4.57
2023-01-01T13:29:09.566Z,4.70
2023-01-01T13:32:13.649Z,4.17
2023-01-01T13:35:19.730Z,4.63
2023-01-01T13:38:46.200Z,4.47
2023-01-01T13:41:50.519Z,4.57
2023-01-01T13:44:53.545Z,4.50
2023-01-01T13:48:15.165Z,7.97
2023-01-01T13:52:04.837Z,4.47
2023-01-01T13:55:43.570Z,5.90
2023-01-01T13:59:11.604Z,7.10
2023-01-01T14:02:24.514Z,5.40
2023-01-01T14:05:32.604Z,4.47
2023-01-01T14:08:37.198Z,5.13
2023-01-01T14:11:40.231Z,8.60
2023-01-01T14:14:44.750Z,4.57
2023-01-01T14:17:49.828Z,5.13
2023-01-01T14:20:54.364Z,8.07
2023-01-01T14:23:59.280Z,5.70
2023-01-01T14:27:05.936Z,6.77
2023-01-01T14:30:17.401Z,6.07
2023-01-01T14:33:24.976Z,7.40
2023-01-01T14:36:30.303Z,5.23
2023-01-01T14:39:34.766Z,5.77
2023-01-01T14:42:38.378Z,5.17
2023-01-01T14:45:44.883Z,5.07
2023-01-01T14:48:50.500Z,8.47
2023-01-01T14:51:57.872Z,5.40
2023-01-01T14:55:02.151Z,5.93
2023-01-01T14:58:05.178Z,7.83
2023-01-01T15:01:23.605Z,5.00
2023-01-01T15:04:26.714Z,11.00
2023-01-01T15:07:31.690Z,5.93
2023-01-01T15:10:36.938Z,6.13
2023-01-01T15:13:39.885Z,5.80
2023-01-01T15:16:44.256Z,5.73
2023-01-01T15:19:48.646Z,5.77
2023-01-01T15:22:52.894Z,8.20
2023-01-01T15:25:56.569Z,5.63
2023-01-01T15:29:00.487Z,6.10
2023-01-01T15:32:07.114Z,6.07
2023-01-01T15:35:27.724Z,6.57
2023-01-01T15:38:37.363Z,8.80
2023-01-01T15:41:45.122Z,8.13
2023-01-01T15:44:48.069Z,9.40
2023-01-01T15:47:54.173Z,7.77
2023-01-01T15:51:06.381Z,10.03
2023-01-01T15:54:18.994Z,8.33
2023-01-01T15:57:24.277Z,9.00
2023-01-01T16:00:30.270Z,9.20
2023-01-01T16:03:37.732Z,8.77
2023-01-01T16:06:45.915Z,12.23
2023-01-01T16:09:54.974Z,8.53
2023-01-01T16:13:00.497Z,11.30
2023-01-01T16:16:05.153Z,7.87
2023-01-01T16:19:15.761Z,7.57
2023-01-01T16:22:20.075Z,10.47
2023-01-01T16:25:24.404Z,7.07
2023-01-01T16:28:27.383Z,7.13
2023-01-01T16:31:30.312Z,8.13
2023-01-01T16:34:34.612Z,6.93
2023-01-01T16:37:37.499Z,7.27
2023-01-01T16:40:40.471Z,8.37
2023-01-01T16:43:44.150Z,6.20
2023-01-01T16:46:47.204Z,5.57
2023-01-01T16:49:51.507Z,5.77
2023-01-01T16:52:54.545Z,5.40
2023-01-01T16:55:57.749Z,5.53
2023-01-01T16:59:03.464Z,5.27
2023-01-01T17:02:07.690Z,5.10
2023-01-01T17:05:12.697Z,5.00
2023-01-01T17:08:15.642Z,5.00
2023-01-01T17:11:20.492Z,5.57
2023-01-01T17:14:23.454Z,5.07
2023-01-01T17:17:26.467Z,5.00
2023-01-01T17:20:30.764Z,5.73
2023-01-01T17:23:36.409Z,5.40
2023-01-01T17:26:39.548Z,7.53
2023-01-01T17:29:42.507Z,6.10
2023-01-01T17:32:45.444Z,5.87
2023-01-01T17:35:49.739Z,6.40
2023-01-01T17:38:52.663Z,6.23
2023-01-01T17:41:57.872Z,8.80
2023-01-01T17:45:00.965Z,7.87
2023-01-01T17:48:04.061Z,7.13
2023-01-01T17:51:08.804Z,7.57
2023-01-01T17:54:13.775Z,7.50
2023-01-01T17:57:17.324Z,7.80
2023-01-01T18:00:20.292Z,9.43
2023-01-01T18:03:23.336Z,10.20
2023-01-01T18:06:28.266Z,10.90
2023-01-01T18:09:31.301Z,13.60
2023-01-01T18:12:34.192Z,16.90
2023-01-01T18:15:38.196Z,16.23
2023-01-01T18:18:41.657Z,18.50
2023-01-01T18:21:46.030Z,22.13
2023-01-01T18:24:49.061Z,21.80
2023-01-01T18:27:57.296Z,24.67
2023-01-01T18:31:06.199Z,24.63
2023-01-01T18:34:10.412Z,26.77
2023-01-01T18:37:14.712Z,27.37
2023-01-01T18:40:18.453Z,23.60
2023-01-01T18:43:24.794Z,25.57
2023-01-01T18:46:28.109Z,20.53
2023-01-01T18:49:31.619Z,20.30
2023-01-01T18:52:35.976Z,18.60
2023-01-01T18:55:38.899Z,25.93
2023-01-01T18:58:43.199Z,23.13
2023-01-01T19:01:46.342Z,22.17
2023-01-01T19:04:50.550Z,19.90
2023-01-01T19:08:02.035Z,17.87
2023-01-01T19:11:13.291Z,17.40
2023-01-01T19:14:18.729Z,18.07
2023-01-01T19:17:23.771Z,15.23
2023-01-01T19:20:26.726Z,13.90
2023-01-01T19:23:31.741Z,11.50
2023-01-01T19:26:36.886Z,13.10
2023-01-01T19:29:43.316Z,11.90
2023-01-01T19:32:47.274Z,9.17
2023-01-01T19:35:50.197Z,8.20
2023-01-01T19:38:54.540Z,9.00
2023-01-01T19:42:03.617Z,8.53
2023-01-01T19:45:08.455Z,10.83
2023-01-01T19:48:11.407Z,9.53
2023-01-01T19:51:14.331Z,6.13
2023-01-01T19:54:18.604Z,5.77
2023-01-01T19:57:21.561Z,8.23
2023-01-01T20:00:27.449Z,6.47
2023-01-01T20:06:53.390Z,6.40
2023-01-01T20:09:57.691Z,5.70
2023-01-01T20:13:00.684Z,7.27
2023-01-01T20:16:03.657Z,7.00
2023-01-01T20:19:06.615Z,8.27
2023-01-01T20:22:13.778Z,10.17
2023-01-01T20:25:18.235Z,10.70
2023-01-01T20:28:38.871Z,9.50
2023-01-01T20:31:42.766Z,9.53
2023-01-01T20:34:45.928Z,11.80
2023-01-01T20:37:47.967Z,12.30
2023-01-01T20:40:52.249Z,11.83
2023-01-01T20:43:57.249Z,10.20
2023-01-01T20:47:00.290Z,10.37
2023-01-01T20:50:03.238Z,16.23
2023-01-01T20:53:06.293Z,10.53
2023-01-01T20:56:10.911Z,8.07
2023-01-01T20:59:34.161Z,7.57
2023-01-01T21:02:38.253Z,6.50
2023-01-01T21:05:41.399Z,7.03
2023-01-01T21:08:45.535Z,8.20
2023-01-01T21:11:50.497Z,12.80
2023-01-01T21:14:56.343Z,8.30
2023-01-01T21:17:59.977Z,9.13
2023-01-01T21:21:03.272Z,7.73
2023-01-01T21:24:16.079Z,7.53
2023-01-01T21:27:25.044Z,6.97
2023-01-01T21:30:28.021Z,7.50
2023-01-01T21:33:32.871Z,6.80
2023-01-01T21:36:35.944Z,10.20
2023-01-01T21:39:38.881Z,12.10
2023-01-01T21:42:43.235Z,8.10
2023-01-01T21:45:48.261Z,7.20
2023-01-01T21:48:58.827Z,7.67
2023-01-01T21:52:02.585Z,8.43
2023-01-01T21:55:19.770Z,6.90
2023-01-01T21:58:44.814Z,7.33
2023-01-01T22:01:50.657Z,9.83
2023-01-01T22:04:53.836Z,10.20
2023-01-01T22:07:58.926Z,7.67
2023-01-01T22:11:02.843Z,9.27
2023-01-01T22:14:13.547Z,9.87
2023-01-01T22:17:22.300Z,8.13
2023-01-01T22:20:25.709Z,7.67
2023-01-01T22:23:40.785Z,10.47
2023-01-01T22:26:43.831Z,10.77
2023-01-01T22:29:48.480Z,8.83
2023-01-01T22:32:53.519Z,7.10
2023-01-01T22:35:57.803Z,12.63
2023-01-01T22:39:04.316Z,7.43
2023-01-01T22:42:10.765Z,9.13
2023-01-01T22:45:17.292Z,8.20
2023-01-01T22:48:22.984Z,8.67
2023-01-01T22:51:28.955Z,6.93
2023-01-01T22:54:31.915Z,10.43
2023-01-01T22:57:34.781Z,7.47
2023-01-01T23:00:39.200Z,10.63
2023-01-01T23:03:42.196Z,8.67
2023-01-01T23:06:45.268Z,9.53
2023-01-01T23:09:48.273Z,10.50
2023-01-01T23:12:51.209Z,10.43
2023-01-01T23:16:01.688Z,7.57
2023-01-01T23:19:05.410Z,9.37
2023-01-01T23:22:08.620Z,6.97
2023-01-01T23:25:14.254Z,8.07
2023-01-01T23:28:17.510Z,12.07
2023-01-01T23:31:25.580Z,10.70
2023-01-01T23:34:28.907Z,8.83
2023-01-01T23:37:31.919Z,9.10
2023-01-01T23:40:34.873Z,8.37
2023-01-01T23:43:43.135Z,8.90
2023-01-01T23:46:48.071Z,9.13
2023-01-01T23:49:51.100Z,7.03
2023-01-01T23:52:54.055Z,9.00
2023-01-01T23:55:57.002Z,9.37
2023-01-01T23:58:59.967Z,7.03
